Time;durP1;ratioP1;P1;durP2;ratioP2;P2;SDS_P1;SDS_P2;PMS_P1;PMS_P2;Temp;Humidity;BMP_temperature;BMP_pressure;BME280_temperature;BME280_humidity;BME280_pressure;Samples;Min_cycle;Max_cycle;Signal;HPM_P1;HPM_P2
2022/08/09 00:01:01;;;;;;;4.60;2.70;;;15.70;99.90;;;;;;5114570;28;20065;-76
2022/08/09 00:03:27;;;;;;;7.30;3.07;;;15.70;99.90;;;;;;5115131;28;20088;-77
2022/08/09 00:05:52;;;;;;;5.10;3.70;;;15.60;99.90;;;;;;5114821;28;20043;-77
2022/08/09 00:08:18;;;;;;;6.27;3.50;;;15.60;99.90;;;;;;5114792;28;20055;-77
2022/08/09 00:10:43;;;;;;;7.40;3.65;;;15.60;99.90;;;;;;5114991;28;20036;-77
2022/08/09 00:13:09;;;;;;;5.13;3.22;;;15.50;99.90;;;;;;5114594;28;20395;-77
2022/08/09 00:15:35;;;;;;;7.40;3.30;;;15.50;99.90;;;;;;5114543;28;20051;-78
2022/08/09 00:18:01;;;;;;;4.00;3.13;;;15.50;99.90;;;;;;5115141;28;20494;-77
2022/08/09 00:20:26;;;;;;;6.22;3.20;;;15.40;99.90;;;;;;5114589;28;20047;-77
2022/08/09 00:22:52;;;;;;;6.50;4.00;;;15.40;99.90;;;;;;5114585;28;20050;-77
2022/08/09 00:25:17;;;;;;;6.13;3.77;;;15.30;99.90;;;;;;5114612;28;20066;-76
2022/08/09 00:27:43;;;;;;;7.30;3.83;;;15.30;99.90;;;;;;5114399;28;20036;-76
2022/08/09 00:30:09;;;;;;;5.03;3.90;;;15.30;99.90;;;;;;5114358;28;20063;-76
2022/08/09 00:32:35;;;;;;;5.00;3.50;;;15.20;99.90;;;;;;5114229;28;20036;-77
2022/08/09 00:35:02;;;;;;;6.50;3.30;;;15.30;99.90;;;;;;5114089;28;20437;-78
2022/08/09 00:37:27;;;;;;;;;;;15.30;99.90;;;;;;5114833;28;20039;-78
2022/08/09 00:39:53;;;;;;;6.05;3.75;;;15.20;99.90;;;;;;5114451;28;19919;-77
2022/08/09 00:42:18;;;;;;;6.73;3.73;;;15.20;99.90;;;;;;5113330;28;20040;-76
2022/08/09 00:44:44;;;;;;;7.60;4.10;;;15.10;99.90;;;;;;5114241;28;20102;-77
2022/08/09 00:47:10;;;;;;;7.97;3.97;;;15.20;99.90;;;;;;5114126;28;20062;-78
2022/08/09 00:49:35;;;;;;;8.63;4.20;;;15.10;99.90;;;;;;5114062;28;20054;-77
2022/08/09 00:52:01;;;;;;;5.32;3.65;;;15.10;99.90;;;;;;5114242;28;20048;-77
2022/08/09 00:54:27;;;;;;;5.37;3.50;;;15.10;99.90;;;;;;5113808;28;20448;-76
2022/08/09 00:56:53;;;;;;;7.47;3.60;;;15.20;99.90;;;;;;5114112;28;20438;-76
2022/08/09 00:59:18;;;;;;;6.38;3.25;;;15.00;99.90;;;;;;5114014;28;20048;-75
2022/08/09 01:01:46;;;;;;;5.10;3.50;;;15.00;99.90;;;;;;5113871;28;20494;-77
2022/08/09 01:04:36;;;;;;;6.50;3.70;;;15.00;99.90;;;;;;5113941;28;20044;-77
2022/08/09 01:07:40;;;;;;;6.63;3.70;;;15.00;99.90;;;;;;5113815;28;20051;-77
2022/08/09 01:10:17;;;;;;;4.95;3.50;;;15.00;99.90;;;;;;5079002;28;20115;-77
2022/08/09 01:12:52;;;;;;;7.37;3.43;;;14.90;99.90;;;;;;5113723;28;20494;-77
2022/08/09 01:15:23;;;;;;;5.95;3.47;;;14.90;99.90;;;;;;5114163;28;20051;-78
2022/08/09 01:18:05;;;;;;;7.93;3.65;;;14.90;99.90;;;;;;5113871;28;20047;-76
2022/08/09 01:21:02;;;;;;;5.47;3.50;;;14.90;99.90;;;;;;5113895;28;20039;-76
2022/08/09 01:24:01;;;;;;;5.35;3.45;;;14.90;99.90;;;;;;5113695;28;20098;-76
2022/08/09 01:26:53;;;;;;;4.78;3.35;;;14.80;99.90;;;;;;5113702;28;20044;-77
2022/08/09 01:29:26;;;;;;;4.82;3.30;;;14.80;99.90;;;;;;5114093;28;20058;-77
2022/08/09 01:31:57;;;;;;;6.68;3.80;;;14.70;99.90;;;;;;5113845;28;20043;-76
2022/08/09 01:34:26;;;;;;;6.07;4.32;;;14.70;99.90;;;;;;5114022;28;20408;-77
2022/08/09 01:36:54;;;;;;;7.45;4.47;;;14.70;99.90;;;;;;5113733;28;20044;-77
2022/08/09 01:39:21;;;;;;;6.60;4.60;;;14.60;99.90;;;;;;5114188;28;20490;-77
2022/08/09 01:41:49;;;;;;;9.68;3.88;;;14.60;99.90;;;;;;5114203;28;20449;-77
2022/08/09 01:44:16;;;;;;;8.27;4.15;;;14.50;99.90;;;;;;5113498;28;20499;-77
2022/08/09 01:46:45;;;;;;;7.35;4.57;;;14.50;99.90;;;;;;5113647;28;20542;-77
2022/08/09 01:49:14;;;;;;;6.53;4.15;;;14.50;99.90;;;;;;5113475;28;20043;-76
2022/08/09 01:51:43;;;;;;;6.20;3.83;;;14.50;99.90;;;;;;5113390;28;20047;-76
2022/08/09 01:54:09;;;;;;;6.10;4.57;;;14.50;99.90;;;;;;5113495;28;20051;-77
2022/08/09 01:56:39;;;;;;;5.50;4.17;;;14.40;99.90;;;;;;5113442;28;20044;-77
2022/08/09 01:59:08;;;;;;;9.40;4.57;;;14.40;99.90;;;;;;5113093;28;20772;-76
2022/08/09 02:01:36;;;;;;;7.30;4.35;;;14.40;99.90;;;;;;5113707;28;20035;-78
2022/08/09 02:04:03;;;;;;;5.75;4.07;;;14.40;99.90;;;;;;5113081;28;20506;-76
2022/08/09 02:09:17;;;;;;;6.10;4.35;;;14.30;99.90;;;;;;5113288;28;20043;-77
2022/08/09 02:11:43;;;;;;;5.80;4.38;;;14.20;99.90;;;;;;5113297;28;20044;-78
2022/08/09 02:14:10;;;;;;;6.27;4.30;;;14.20;99.90;;;;;;5113507;28;20079;-76
2022/08/09 02:16:38;;;;;;;5.38;4.60;;;14.20;99.90;;;;;;5113341;28;20104;-78
2022/08/09 02:19:04;;;;;;;6.97;4.53;;;14.20;99.90;;;;;;5116310;28;20050;-77
2022/08/09 02:21:44;;;;;;;6.63;4.88;;;14.10;99.90;;;;;;5116882;28;20078;-77
2022/08/09 02:24:13;;;;;;;6.22;4.20;;;14.10;99.90;;;;;;5116735;28;20043;-77
2022/08/09 02:26:40;;;;;;;6.78;4.75;;;14.10;99.90;;;;;;5116763;28;20517;-77
2022/08/09 02:29:20;;;;;;;5.97;4.50;;;14.00;99.90;;;;;;5116730;28;20039;-77
2022/08/09 02:31:47;;;;;;;6.70;4.50;;;14.10;99.90;;;;;;5116692;27;20043;-79
2022/08/09 02:34:16;;;;;;;5.82;5.00;;;14.00;99.90;;;;;;5116682;28;20490;-77
2022/08/09 02:36:47;;;;;;;5.78;4.53;;;14.00;99.90;;;;;;5116587;27;20096;-76
2022/08/09 02:39:18;;;;;;;5.68;4.68;;;13.90;99.90;;;;;;5116564;28;20045;-76
2022/08/09 02:41:50;;;;;;;5.57;4.60;;;13.90;99.90;;;;;;5116707;28;20047;-76
2022/08/09 02:44:21;;;;;;;6.68;5.00;;;13.90;99.90;;;;;;5116574;28;20126;-77
2022/08/09 02:46:50;;;;;;;6.43;4.75;;;13.80;99.90;;;;;;5116982;28;20036;-78
2022/08/09 02:49:20;;;;;;;7.50;4.93;;;13.80;99.90;;;;;;5116635;28;20043;-79
2022/08/09 02:51:56;;;;;;;5.95;5.07;;;13.80;99.90;;;;;;5116193;28;20130;-77
2022/08/09 02:54:23;;;;;;;8.50;5.15;;;13.80;99.90;;;;;;5116188;28;20108;-77
2022/08/09 02:56:49;;;;;;;;;;;13.80;99.90;;;;;;5116328;28;20487;-77
2022/08/09 02:59:17;;;;;;;9.70;5.70;;;13.70;99.90;;;;;;5116201;28;19975;-78
2022/08/09 03:01:44;;;;;;;7.63;5.15;;;13.70;99.90;;;;;;5116179;28;20050;-76
2022/08/09 03:04:11;;;;;;;7.57;5.65;;;13.60;99.90;;;;;;5116094;28;20092;-77
2022/08/09 03:06:39;;;;;;;6.75;5.13;;;13.70;99.90;;;;;;5116049;28;20056;-78
2022/08/09 03:09:06;;;;;;;6.43;5.22;;;13.70;99.90;;;;;;5116007;28;20044;-78
2022/08/09 03:11:33;;;;;;;7.35;5.22;;;13.60;99.90;;;;;;5116108;28;20058;-78
2022/08/09 03:14:00;;;;;;;;;;;13.60;99.90;;;;;;5116118;28;20381;-78
2022/08/09 03:16:26;;;;;;;6.82;5.20;;;13.60;99.90;;;;;;5115563;28;20394;-77
2022/08/09 03:18:52;;;;;;;7.55;5.38;;;13.60;99.90;;;;;;5115771;28;20047;-76
2022/08/09 03:21:21;;;;;;;8.95;5.25;;;13.60;99.90;;;;;;5115716;28;20098;-76
2022/08/09 03:23:46;;;;;;;9.13;5.85;;;13.50;99.90;;;;;;5115521;28;20560;-76
2022/08/09 03:26:17;;;;;;;7.60;5.60;;;13.60;99.90;;;;;;5116094;28;20047;-77
2022/08/09 03:28:45;;;;;;;6.65;5.70;;;13.50;99.90;;;;;;5115508;28;20549;-76
2022/08/09 03:31:11;;;;;;;7.72;6.05;;;13.50;99.90;;;;;;5115426;28;20062;-77
2022/08/09 03:33:38;;;;;;;6.35;5.32;;;13.60;99.90;;;;;;5115651;28;20065;-78
2022/08/09 03:36:04;;;;;;;9.32;6.45;;;13.50;99.90;;;;;;5115439;28;20082;-76
2022/08/09 03:38:29;;;;;;;11.73;7.00;;;13.50;99.90;;;;;;5115379;28;20088;-77
2022/08/09 03:40:55;;;;;;;8.93;6.63;;;13.50;99.90;;;;;;5114944;28;20459;-76
2022/08/09 03:43:21;;;;;;;7.20;5.82;;;13.50;99.90;;;;;;5115427;28;20489;-75
2022/08/09 03:45:46;;;;;;;8.33;6.60;;;13.50;99.90;;;;;;5115220;28;20051;-77
2022/08/09 03:48:12;;;;;;;9.73;6.43;;;13.50;99.90;;;;;;5115123;28;20479;-76
2022/08/09 03:50:39;;;;;;;10.07;6.77;;;13.50;99.90;;;;;;5115189;28;20086;-77
2022/08/09 03:53:08;;;;;;;7.55;5.55;;;13.50;99.90;;;;;;5114879;28;20487;-76
2022/08/09 03:55:34;;;;;;;8.85;6.55;;;13.50;99.90;;;;;;5115263;28;20474;-76
2022/08/09 03:58:00;;;;;;;8.13;6.37;;;13.50;99.90;;;;;;5115320;28;20050;-77
2022/08/09 04:00:26;;;;;;;10.85;6.22;;;13.50;99.90;;;;;;5114831;28;20471;-77
2022/08/09 04:02:54;;;;;;;7.70;5.82;;;13.50;99.90;;;;;;5113699;28;20043;-77
2022/08/09 04:05:20;;;;;;;8.60;5.88;;;13.50;99.90;;;;;;5114825;28;20047;-77
2022/08/09 04:07:46;;;;;;;7.50;5.90;;;13.50;99.90;;;;;;5114779;28;20046;-78
2022/08/09 04:10:13;;;;;;;6.72;5.47;;;13.50;99.90;;;;;;5114852;28;20040;-77
2022/08/09 04:12:49;;;;;;;8.77;6.40;;;13.60;99.90;;;;;;5114629;28;20507;-77
2022/08/09 04:15:16;;;;;;;10.93;6.50;;;13.50;99.90;;;;;;5113319;28;20459;-76
2022/08/09 04:17:43;;;;;;;8.32;6.13;;;13.50;99.90;;;;;;5114735;28;20437;-77
2022/08/09 04:20:10;;;;;;;9.27;5.72;;;13.50;99.90;;;;;;5114489;28;20055;-77
2022/08/09 04:22:36;;;;;;;7.13;5.20;;;13.50;99.90;;;;;;5114676;28;20499;-77
2022/08/09 04:25:02;;;;;;;8.13;6.23;;;13.50;99.90;;;;;;5115102;28;20065;-78
2022/08/09 04:27:28;;;;;;;8.93;5.88;;;13.50;99.90;;;;;;5114166;28;20085;-76
2022/08/09 04:29:54;;;;;;;8.23;6.00;;;13.50;99.90;;;;;;5114660;28;20116;-76
2022/08/09 04:32:20;;;;;;;8.52;5.82;;;13.40;99.90;;;;;;5114109;28;20480;-78
2022/08/09 04:34:45;;;;;;;6.97;5.57;;;13.50;99.90;;;;;;5114096;28;20479;-78
2022/08/09 04:37:11;;;;;;;6.68;5.20;;;13.50;99.90;;;;;;5114384;28;20518;-77
2022/08/09 04:39:36;;;;;;;6.43;5.05;;;13.70;99.90;;;;;;5113768;28;20043;-78
2022/08/09 04:42:02;;;;;;;6.88;5.43;;;13.60;99.90;;;;;;5113617;28;20488;-77
2022/08/09 04:44:28;;;;;;;8.30;5.47;;;13.60;99.90;;;;;;5114376;28;20051;-77
2022/08/09 04:46:53;;;;;;;8.88;5.53;;;13.60;99.90;;;;;;5114269;28;20050;-79
2022/08/09 04:49:19;;;;;;;10.20;5.38;;;13.60;99.90;;;;;;5112945;28;20392;-80
2022/08/09 04:51:45;;;;;;;8.05;5.45;;;13.60;99.90;;;;;;5112997;28;20047;-80
2022/08/09 04:54:10;;;;;;;8.00;5.53;;;13.60;99.90;;;;;;5113929;28;20521;-81
2022/08/09 04:56:36;;;;;;;7.15;5.32;;;13.60;99.90;;;;;;5114082;28;20184;-79
2022/08/09 04:59:01;;;;;;;7.73;5.53;;;13.60;99.90;;;;;;5113834;28;20092;-79
2022/08/09 05:01:27;;;;;;;7.05;6.22;;;13.90;99.90;;;;;;5112711;28;20087;-78
2022/08/09 05:03:53;;;;;;;9.47;6.77;;;13.70;99.90;;;;;;5113859;28;20039;-78
2022/08/09 05:06:18;;;;;;;10.37;6.87;;;13.70;99.90;;;;;;5114433;28;20051;-79
2022/08/09 05:08:44;;;;;;;8.13;5.72;;;13.70;99.90;;;;;;5113614;28;20046;-79
2022/08/09 05:11:10;;;;;;;8.13;5.97;;;13.80;99.90;;;;;;5114014;28;20112;-77
2022/08/09 05:13:36;;;;;;;9.32;6.05;;;13.80;99.90;;;;;;5114013;28;20372;-76
2022/08/09 05:16:01;;;;;;;6.22;5.53;;;13.80;99.90;;;;;;5113916;28;20050;-78
2022/08/09 05:18:32;;;;;;;8.40;6.13;;;13.80;99.90;;;;;;5113807;28;20559;-79
2022/08/09 05:20:58;;;;;;;8.35;6.63;;;13.90;99.90;;;;;;5113812;28;20400;-78
2022/08/09 05:23:24;;;;;;;8.00;5.85;;;13.90;99.90;;;;;;5113810;28;20039;-80
2022/08/09 05:25:50;;;;;;;8.18;5.90;;;14.00;99.90;;;;;;5113762;28;20065;-80
2022/08/09 05:28:16;;;;;;;8.52;5.88;;;14.10;99.90;;;;;;5112737;28;20387;-79
2022/08/09 05:30:42;;;;;;;8.23;5.63;;;14.10;99.90;;;;;;5113708;28;20372;-79
2022/08/09 05:33:08;;;;;;;7.15;5.30;;;14.20;99.90;;;;;;5113611;28;20039;-77
2022/08/09 05:35:34;;;;;;;9.43;5.93;;;14.20;99.90;;;;;;5114111;28;20377;-81
2022/08/09 05:37:59;;;;;;;8.43;6.25;;;14.30;99.90;;;;;;5113605;28;20054;-81
2022/08/09 05:40:27;;;;;;;8.50;4.68;;;14.30;99.90;;;;;;5113440;28;20055;-77
2022/08/09 05:42:56;;;;;;;7.88;5.18;;;14.40;99.90;;;;;;5113844;28;20126;-79
2022/08/09 05:45:22;;;;;;;7.82;5.20;;;14.50;99.90;;;;;;5112722;28;20055;-78
2022/08/09 05:47:48;;;;;;;7.35;4.95;;;14.50;99.90;;;;;;5113569;28;20047;-77
2022/08/09 05:50:14;;;;;;;6.77;4.80;;;14.60;99.90;;;;;;5113508;28;20535;-80
2022/08/09 05:52:41;;;;;;;7.60;4.70;;;14.60;99.90;;;;;;5115149;28;20040;-79
2022/08/09 05:55:07;;;;;;;6.97;4.50;;;14.70;99.90;;;;;;5117730;28;20126;-78
2022/08/09 05:57:34;;;;;;;7.13;4.63;;;14.80;99.90;;;;;;5117425;28;20135;-78
2022/08/09 05:59:59;;;;;;;7.70;4.63;;;14.80;99.90;;;;;;5117220;28;20354;-78
2022/08/09 06:02:25;;;;;;;7.40;4.50;;;14.90;99.90;;;;;;5117329;28;20472;-79
2022/08/09 06:04:51;;;;;;;7.33;4.40;;;15.00;99.90;;;;;;5117369;28;20071;-80
2022/08/09 06:07:17;;;;;;;5.60;3.90;;;15.10;99.90;;;;;;5116092;28;20115;-81
2022/08/09 06:09:42;;;;;;;5.53;3.97;;;15.10;99.90;;;;;;5115992;28;20529;-82
2022/08/09 06:12:08;;;;;;;11.35;4.03;;;15.30;99.90;;;;;;5115879;28;20036;-82
2022/08/09 06:14:33;;;;;;;5.07;3.73;;;15.50;99.90;;;;;;5117074;28;20101;-80
2022/08/09 06:16:59;;;;;;;5.63;3.17;;;15.60;99.90;;;;;;5117056;28;20475;-82
2022/08/09 06:19:25;;;;;;;5.70;3.67;;;15.80;99.90;;;;;;5097732;28;20079;-81
2022/08/09 06:21:51;;;;;;;5.97;3.33;;;16.00;99.90;;;;;;5115746;28;20040;-82
2022/08/09 06:24:17;;;;;;;5.97;3.33;;;16.10;99.90;;;;;;5115832;28;20395;-79
2022/08/09 06:26:43;;;;;;;4.93;2.90;;;16.30;99.90;;;;;;5116889;28;20047;-79
2022/08/09 06:29:09;;;;;;;4.97;3.30;;;16.50;99.90;;;;;;5116916;28;20090;-79
2022/08/09 06:31:35;;;;;;;4.33;2.83;;;16.70;99.90;;;;;;5116628;28;20317;-80
2022/08/09 06:34:02;;;;;;;3.58;2.17;;;16.80;99.90;;;;;;5116269;27;20043;-78
2022/08/09 06:36:28;;;;;;;;;;;17.00;99.90;;;;;;5116848;28;20055;-77
2022/08/09 06:38:53;;;;;;;5.25;2.30;;;17.00;99.90;;;;;;5116626;28;19920;-80
2022/08/09 06:41:19;;;;;;;3.30;2.30;;;17.20;99.90;;;;;;5115746;28;20472;-80
2022/08/09 06:43:46;;;;;;;3.93;2.37;;;17.40;99.90;;;;;;5114494;28;20071;-80
2022/08/09 06:46:13;;;;;;;3.22;2.38;;;17.50;99.90;;;;;;5116014;28;20047;-81
2022/08/09 06:48:40;;;;;;;5.97;2.55;;;17.70;99.90;;;;;;5116627;28;20047;-79
2022/08/09 06:51:05;;;;;;;5.57;2.30;;;17.70;99.90;;;;;;5116585;28;20056;-77
2022/08/09 06:53:31;;;;;;;5.27;2.10;;;17.80;99.90;;;;;;5117313;28;20043;-78
2022/08/09 06:55:59;;;;;;;3.93;2.50;;;18.00;99.90;;;;;;5116341;28;20043;-79
2022/08/09 06:58:24;;;;;;;5.13;2.20;;;18.10;99.90;;;;;;5116540;28;20048;-80
2022/08/09 07:00:50;;;;;;;4.57;2.50;;;18.20;99.90;;;;;;5114740;28;20039;-84
2022/08/09 07:03:16;;;;;;;3.80;2.53;;;18.30;99.90;;;;;;5097231;28;20082;-78
2022/08/09 07:05:41;;;;;;;3.67;2.40;;;18.40;99.90;;;;;;5115503;28;20093;-79
2022/08/09 07:08:07;;;;;;;4.03;2.57;;;18.60;99.90;;;;;;5115916;28;20093;-77
2022/08/09 07:10:33;;;;;;;4.13;2.80;;;18.60;99.90;;;;;;5115771;28;20044;-79
2022/08/09 07:12:59;;;;;;;5.53;2.83;;;18.70;99.90;;;;;;5115167;27;20039;-80
2022/08/09 07:15:25;;;;;;;3.53;2.30;;;18.70;99.90;;;;;;5115684;28;20281;-80
2022/08/09 07:17:51;;;;;;;4.82;2.85;;;18.80;99.90;;;;;;5115282;28;20036;-80
2022/08/09 07:20:17;;;;;;;4.43;2.37;;;18.90;99.90;;;;;;5114043;28;20066;-76
2022/08/09 07:22:43;;;;;;;3.67;2.20;;;19.00;99.90;;;;;;5114171;28;20162;-79
2022/08/09 07:25:09;;;;;;;4.47;2.42;;;19.10;99.90;;;;;;5115122;28;20043;-80
2022/08/09 07:27:36;;;;;;;4.70;2.40;;;19.10;99.90;;;;;;5115268;28;20047;-78
2022/08/09 07:30:02;;;;;;;;;;;19.10;99.90;;;;;;5115600;28;20044;-77
2022/08/09 07:32:29;;;;;;;5.35;2.60;;;19.20;99.90;;;;;;5115131;28;19923;-77
2022/08/09 07:34:54;;;;;;;4.43;2.20;;;19.20;99.90;;;;;;5115404;28;20483;-79
2022/08/09 07:37:20;;;;;;;3.73;2.20;;;19.20;99.90;;;;;;5115809;28;20047;-79
2022/08/09 07:39:45;;;;;;;4.97;1.80;;;19.40;99.90;;;;;;5115476;28;20547;-79
2022/08/09 07:42:11;;;;;;;3.80;2.33;;;19.50;99.90;;;;;;5115371;28;20051;-75
2022/08/09 07:44:36;;;;;;;4.40;2.27;;;19.60;99.90;;;;;;5115106;28;20061;-79
2022/08/09 07:47:02;;;;;;;5.83;2.07;;;19.70;99.90;;;;;;5115119;28;20065;-80
2022/08/09 07:49:28;;;;;;;4.40;2.30;;;19.80;99.90;;;;;;5115227;28;20047;-78
2022/08/09 07:51:53;;;;;;;8.53;2.43;;;20.00;99.90;;;;;;5114984;28;20044;-78
2022/08/09 07:54:19;;;;;;;6.93;2.60;;;19.90;99.90;;;;;;5115009;28;20387;-79
2022/08/09 07:56:44;;;;;;;4.57;2.17;;;19.90;99.90;;;;;;5114852;28;20043;-77
2022/08/09 07:59:10;;;;;;;6.93;2.10;;;19.80;99.90;;;;;;5113816;28;20047;-78
2022/08/09 08:01:35;;;;;;;4.47;2.00;;;19.90;99.90;;;;;;5114929;28;20506;-77
2022/08/09 08:04:02;;;;;;;2.90;1.50;;;20.00;99.90;;;;;;5114736;28;20032;-80
2022/08/09 08:06:29;;;;;;;2.70;1.58;;;20.00;99.90;;;;;;5115163;28;20072;-78
2022/08/09 08:08:55;;;;;;;3.38;1.58;;;20.10;99.90;;;;;;5115094;28;20044;-77
2022/08/09 08:11:20;;;;;;;4.50;1.47;;;20.20;99.90;;;;;;5114734;28;20134;-81
2022/08/09 08:13:46;;;;;;;3.20;1.50;;;20.30;99.90;;;;;;5114638;28;20373;-78
2022/08/09 08:16:12;;;;;;;3.53;1.50;;;20.20;99.90;;;;;;5114673;28;20075;-78
2022/08/09 08:18:37;;;;;;;4.37;1.37;;;20.30;99.90;;;;;;5114319;28;20052;-80
2022/08/09 08:21:03;;;;;;;5.20;1.63;;;20.30;99.90;;;;;;5114321;28;20472;-79
2022/08/09 08:23:28;;;;;;;2.43;1.00;;;20.30;99.90;;;;;;5114897;28;20044;-80
2022/08/09 08:25:54;;;;;;;3.30;1.30;;;20.30;99.90;;;;;;5114500;28;20047;-78
2022/08/09 08:28:20;;;;;;;3.93;1.30;;;20.30;99.90;;;;;;5114214;28;20048;-80
2022/08/09 08:30:46;;;;;;;4.50;1.73;;;20.40;99.90;;;;;;5114442;28;20051;-81
2022/08/09 08:33:12;;;;;;;3.22;1.38;;;20.50;99.90;;;;;;5114140;28;20040;-77
2022/08/09 08:35:38;;;;;;;2.50;1.20;;;20.60;99.90;;;;;;5114031;28;20139;-80
2022/08/09 08:38:03;;;;;;;6.03;1.43;;;20.80;99.90;;;;;;5114772;28;20787;-79
2022/08/09 08:40:30;;;;;;;3.63;1.37;;;20.80;99.90;;;;;;5114008;28;20051;-81
2022/08/09 08:42:56;;;;;;;5.00;1.30;;;21.00;99.90;;;;;;5113088;28;20131;-77
2022/08/09 08:45:28;;;;;;;3.35;1.10;;;21.10;99.90;;;;;;5114330;28;20193;-77
2022/08/09 08:47:54;;;;;;;2.58;1.10;;;21.30;99.90;;;;;;5114093;28;20408;-77
2022/08/09 08:50:20;;;;;;;3.90;1.30;;;21.30;99.90;;;;;;5114118;28;20047;-79
2022/08/09 08:52:47;;;;;;;3.33;1.13;;;21.30;99.90;;;;;;5114004;28;20043;-78
2022/08/09 08:55:14;;;;;;;2.42;1.10;;;21.40;99.90;;;;;;5114280;28;20092;-80
2022/08/09 08:57:41;;;;;;;5.03;1.20;;;21.40;99.90;;;;;;5113947;28;20487;-79
2022/08/09 09:00:09;;;;;;;2.42;1.08;;;21.50;99.90;;;;;;5113771;28;20047;-78
2022/08/09 09:02:35;;;;;;;1.90;1.00;;;21.50;99.90;;;;;;5113801;28;20086;-79
2022/08/09 09:05:00;;;;;;;1.47;0.90;;;21.60;99.90;;;;;;5114311;28;20075;-77
2022/08/09 09:07:29;;;;;;;2.30;1.20;;;21.70;99.90;;;;;;5113854;28;20575;-78
2022/08/09 09:09:55;;;;;;;2.80;1.00;;;21.70;99.90;;;;;;5113906;28;20046;-76
2022/08/09 09:12:26;;;;;;;3.28;1.00;;;21.90;99.90;;;;;;5113819;28;20043;-77
2022/08/09 09:14:53;;;;;;;7.45;1.52;;;21.90;99.90;;;;;;5113848;28;20089;-79
2022/08/09 09:17:19;;;;;;;2.95;1.00;;;22.00;99.90;;;;;;5113946;28;20043;-81
2022/08/09 09:19:46;;;;;;;2.27;1.37;;;22.10;99.90;;;;;;5113869;28;20051;-77
2022/08/09 09:22:12;;;;;;;1.70;1.00;;;22.10;99.90;;;;;;5113852;28;20043;-78
2022/08/09 09:24:45;;;;;;;2.75;1.00;;;22.10;99.90;;;;;;5113864;28;20484;-79
2022/08/09 09:27:16;;;;;;;2.15;0.80;;;22.40;99.90;;;;;;5115833;28;20432;-80
2022/08/09 09:29:43;;;;;;;4.13;1.15;;;22.40;99.90;;;;;;5117821;28;20039;-80
2022/08/09 09:32:10;;;;;;;3.25;0.90;;;22.40;99.90;;;;;;5117774;28;20044;-80
2022/08/09 09:34:37;;;;;;;2.40;0.88;;;22.40;99.90;;;;;;5117828;28;20047;-77
2022/08/09 09:37:03;;;;;;;;;;;22.40;99.90;;;;;;5118337;28;20086;-77
2022/08/09 09:39:30;;;;;;;1.20;0.80;;;22.40;99.90;;;;;;5117732;28;19966;-78
2022/08/09 09:41:56;;;;;;;1.85;0.93;;;22.50;99.90;;;;;;5117797;28;20095;-78
2022/08/09 09:44:29;;;;;;;2.67;1.30;;;22.60;99.90;;;;;;5118101;28;20059;-77
2022/08/09 09:47:02;;;;;;;2.55;0.90;;;22.60;99.90;;;;;;5117125;28;20419;-79
2022/08/09 09:49:27;;;;;;;2.00;1.10;;;22.60;99.90;;;;;;5117770;28;20143;-78
2022/08/09 09:52:03;;;;;;;2.50;0.90;;;22.50;99.90;;;;;;5117769;28;20075;-78
2022/08/09 09:54:39;;;;;;;2.00;0.88;;;22.50;99.90;;;;;;5117451;28;20047;-77
2022/08/09 09:57:17;;;;;;;2.63;0.95;;;22.60;99.90;;;;;;5117451;28;20055;-77
2022/08/09 09:59:44;;;;;;;1.95;0.82;;;22.70;99.90;;;;;;5117407;28;20081;-78
2022/08/09 10:02:10;;;;;;;3.35;0.93;;;22.90;99.90;;;;;;5117553;28;20047;-79
2022/08/09 10:04:36;;;;;;;2.35;0.80;;;23.00;99.90;;;;;;5117244;28;20499;-77
2022/08/09 10:07:03;;;;;;;1.70;0.80;;;23.00;99.90;;;;;;5117218;28;20044;-79
2022/08/09 10:09:46;;;;;;;2.42;1.10;;;23.10;99.90;;;;;;5117089;28;20313;-78
2022/08/09 10:12:25;;;;;;;1.85;0.95;;;23.10;99.90;;;;;;5117363;28;20126;-79
2022/08/09 10:15:01;;;;;;;2.15;0.85;;;23.10;99.90;;;;;;5117010;28;20123;-79
2022/08/09 10:17:33;;;;;;;3.20;1.08;;;23.10;99.90;;;;;;5117087;28;20380;-78
2022/08/09 10:20:04;;;;;;;1.17;0.88;;;23.10;99.90;;;;;;5117016;28;20066;-78
2022/08/09 10:22:36;;;;;;;2.97;0.77;;;23.20;99.90;;;;;;5117000;28;20051;-78
2022/08/09 10:25:05;;;;;;;1.67;0.77;;;23.20;99.90;;;;;;5116896;28;20044;-77
2022/08/09 10:27:32;;;;;;;1.10;0.75;;;23.30;99.90;;;;;;5116745;28;20039;-79
2022/08/09 10:30:00;;;;;;;;;;;23.30;99.90;;;;;;5117216;27;20139;-79
2022/08/09 10:32:26;;;;;;;1.65;0.82;;;23.20;99.90;;;;;;5116553;27;20020;-79
2022/08/09 10:34:54;;;;;;;2.33;0.82;;;23.30;99.90;;;;;;5098611;28;20047;-79
2022/08/09 10:37:20;;;;;;;2.40;1.30;;;23.30;99.90;;;;;;5116768;28;20398;-78
2022/08/09 10:39:46;;;;;;;2.05;1.30;;;23.50;99.90;;;;;;5115205;28;20051;-76
2022/08/09 10:42:14;;;;;;;;;;;23.60;99.90;;;;;;5117038;28;20065;-79
2022/08/09 10:44:45;;;;;;;1.25;0.80;;;23.50;99.90;;;;;;5116425;28;19920;-78
2022/08/09 10:47:39;;;;;;;2.15;0.90;;;23.60;99.90;;;;;;5117138;27;20165;-78
2022/08/09 10:50:17;;;;;;;3.10;0.80;;;23.80;99.90;;;;;;5116256;28;20044;-79
2022/08/09 10:53:01;;;;;;;1.52;0.63;;;23.80;99.90;;;;;;5116474;28;20039;-78
2022/08/09 10:55:28;;;;;;;1.25;0.70;;;24.00;99.90;;;;;;5116260;28;20395;-77
2022/08/09 10:57:55;;;;;;;1.63;0.70;;;24.20;99.90;;;;;;5116179;28;20373;-78
2022/08/09 11:00:32;;;;;;;;;;;24.20;99.90;;;;;;5117023;28;20047;-78
2022/08/09 11:02:58;;;;;;;2.55;0.82;;;24.30;99.70;;;;;;5114840;28;19931;-77
2022/08/09 11:05:26;;;;;;;1.40;0.90;;;24.30;99.60;;;;;;5115694;28;20482;-78
2022/08/09 11:07:52;;;;;;;2.95;0.60;;;24.40;99.90;;;;;;5116032;28;20403;-76
2022/08/09 11:10:42;;;;;;;2.50;0.70;;;24.60;99.90;;;;;;5116311;28;20039;-76
2022/08/09 11:13:15;;;;;;;1.23;0.80;;;24.70;97.90;;;;;;5115970;28;20086;-77
2022/08/09 11:15:41;;;;;;;2.25;0.70;;;24.70;98.40;;;;;;5115969;28;20395;-78
2022/08/09 11:18:11;;;;;;;0.95;0.65;;;24.90;98.60;;;;;;5115796;28;20039;-77
2022/08/09 11:20:41;;;;;;;1.15;0.73;;;24.90;98.50;;;;;;5115624;28;20487;-77
2022/08/09 11:23:07;;;;;;;1.98;0.63;;;25.00;97.90;;;;;;5115747;28;20078;-78
2022/08/09 11:25:36;;;;;;;1.70;0.85;;;25.00;97.80;;;;;;5115678;28;20051;-76
2022/08/09 11:28:34;;;;;;;1.60;0.60;;;25.20;98.00;;;;;;5115639;28;20135;-77
2022/08/09 11:31:02;;;;;;;2.05;0.70;;;25.20;97.10;;;;;;5115330;28;20475;-76
2022/08/09 11:33:39;;;;;;;2.60;0.70;;;25.30;97.70;;;;;;5115290;28;20503;-77
2022/08/09 11:36:05;;;;;;;2.35;0.70;;;25.40;96.90;;;;;;5115591;28;20505;-77
2022/08/09 11:38:33;;;;;;;1.45;0.70;;;25.40;97.30;;;;;;5115394;27;20035;-77
2022/08/09 11:41:12;;;;;;;0.82;0.60;;;25.50;97.20;;;;;;5114988;28;20052;-78
2022/08/09 11:43:45;;;;;;;1.60;0.85;;;25.60;96.60;;;;;;5115137;28;20372;-78
2022/08/09 11:46:11;;;;;;;1.45;0.70;;;25.70;96.50;;;;;;5115257;28;20047;-77
2022/08/09 11:49:06;;;;;;;1.13;0.60;;;25.80;96.30;;;;;;5114930;28;20422;-78
2022/08/09 11:52:01;;;;;;;1.30;0.70;;;25.80;94.10;;;;;;5097128;28;20047;-77
2022/08/09 11:54:27;;;;;;;1.00;0.63;;;26.00;94.60;;;;;;5115131;28;20495;-78
2022/08/09 11:56:53;;;;;;;1.53;0.50;;;26.00;94.60;;;;;;5115012;28;20047;-79
2022/08/09 11:59:26;;;;;;;1.33;0.63;;;26.00;93.00;;;;;;5114956;28;20563;-77
2022/08/09 12:01:52;;;;;;;0.60;0.50;;;26.00;93.00;;;;;;5115018;28;20456;-77
2022/08/09 12:04:18;;;;;;;1.17;0.60;;;26.00;93.40;;;;;;5114889;28;20051;-77
2022/08/09 12:06:52;;;;;;;2.83;0.83;;;26.00;93.00;;;;;;5114877;28;20123;-77
2022/08/09 12:09:25;;;;;;;1.60;0.73;;;26.10;93.30;;;;;;5114744;28;20126;-78
2022/08/09 12:12:00;;;;;;;2.42;0.60;;;26.10;92.50;;;;;;5115163;28;20039;-76
2022/08/09 12:14:31;;;;;;;1.17;0.70;;;26.10;93.00;;;;;;5114830;28;20083;-77
2022/08/09 12:16:57;;;;;;;0.80;0.50;;;26.20;92.20;;;;;;5114724;28;20047;-79
2022/08/09 12:19:30;;;;;;;1.53;0.60;;;26.10;92.30;;;;;;5115069;28;20035;-78
2022/08/09 12:22:02;;;;;;;1.33;0.70;;;26.20;90.60;;;;;;5114566;28;20323;-77
2022/08/09 12:24:28;;;;;;;2.38;0.70;;;26.30;92.00;;;;;;5114457;28;20043;-77
2022/08/09 12:26:55;;;;;;;1.07;0.60;;;26.30;92.00;;;;;;5114072;28;20044;-78
2022/08/09 12:29:30;;;;;;;0.63;0.50;;;26.30;91.80;;;;;;5114388;28;20069;-77
2022/08/09 12:32:10;;;;;;;1.40;0.70;;;26.20;90.90;;;;;;5114834;28;20047;-77
2022/08/09 12:34:41;;;;;;;1.50;0.80;;;26.30;91.50;;;;;;5114491;28;20048;-78
2022/08/09 12:37:08;;;;;;;2.22;0.80;;;26.40;91.20;;;;;;5114338;28;20056;-77
2022/08/09 12:39:33;;;;;;;;;;;26.40;91.30;;;;;;5114673;28;20043;-78
2022/08/09 12:42:10;;;;;;;1.95;0.70;;;26.40;90.30;;;;;;5114219;28;20291;-77
2022/08/09 12:44:40;;;;;;;2.55;0.70;;;26.40;90.70;;;;;;5114281;28;20073;-78
2022/08/09 12:47:07;;;;;;;0.88;0.73;;;26.40;90.40;;;;;;5114121;28;20054;-78
2022/08/09 12:49:34;;;;;;;1.25;0.70;;;26.30;89.80;;;;;;5114075;28;20080;-78
2022/08/09 12:51:59;;;;;;;2.47;0.80;;;26.40;90.50;;;;;;5113753;28;20476;-79
2022/08/09 12:54:25;;;;;;;1.93;0.70;;;26.40;90.50;;;;;;5113891;28;20051;-77
2022/08/09 12:56:51;;;;;;;1.80;0.70;;;26.40;89.50;;;;;;5114059;28;20044;-81